Time;durP1;ratioP1;P1;durP2;ratioP2;P2;SDS_P1;SDS_P2;PMS_P1;PMS_P2;Temp;Humidity;BMP_temperature;BMP_pressure;BME280_temperature;BME280_humidity;BME280_pressure;Samples;Min_cycle;Max_cycle;Signal;HPM_P1;HPM_P2
2022/03/26 00:01:32;;;;;;;38.42;20.45;;;;;;;-0.92;89.46;100559.47;1707148;84;21265;-69
2022/03/26 00:04:00;;;;;;;36.23;20.05;;;;;;;-0.94;89.26;100556.02;1707216;84;21057;-69
2022/03/26 00:06:27;;;;;;;34.90;19.20;;;;;;;-0.96;89.35;100555.98;1707128;84;21045;-69
2022/03/26 00:08:54;;;;;;;50.65;25.48;;;;;;;-0.97;89.49;100550.78;1707050;84;21117;-68
2022/03/26 00:11:22;;;;;;;38.85;21.85;;;;;;;-0.98;89.99;100543.45;1707023;84;21116;-69
2022/03/26 00:13:49;;;;;;;45.38;24.70;;;;;;;-0.97;90.34;100546.47;1707180;84;21255;-69
2022/03/26 00:16:17;;;;;;;50.80;25.27;;;;;;;-0.96;90.47;100543.48;1706898;84;21105;-69
2022/03/26 00:18:45;;;;;;;39.48;22.35;;;;;;;-0.97;90.71;100546.91;1707273;84;22170;-69
2022/03/26 00:21:13;;;;;;;43.73;22.67;;;;;;;-0.97;91.20;100543.02;1706932;84;21122;-69
2022/03/26 00:23:41;;;;;;;45.33;23.77;;;;;;;-0.96;91.44;100540.91;1706948;84;21077;-70
2022/03/26 00:26:10;;;;;;;43.35;23.67;;;;;;;-0.98;91.50;100537.42;1707101;84;21173;-70
2022/03/26 00:28:37;;;;;;;40.00;21.05;;;;;;;-0.99;91.67;100534.37;1707060;84;21070;-70
2022/03/26 00:31:05;;;;;;;39.92;22.37;;;;;;;-0.99;91.83;100530.09;1707116;84;21498;-70
2022/03/26 00:33:34;;;;;;;51.30;24.05;;;;;;;-0.97;91.69;100530.09;1707235;83;21096;-70
2022/03/26 00:36:00;;;;;;;46.25;24.23;;;;;;;-1.00;91.77;100528.34;1707219;84;21086;-70
2022/03/26 00:38:27;;;;;;;49.10;24.07;;;;;;;-1.01;91.63;100520.55;1710537;82;21347;-71
2022/03/26 00:40:53;;;;;;;38.60;20.75;;;;;;;-1.01;91.71;100520.55;1707021;84;21617;-69
2022/03/26 00:43:20;;;;;;;36.55;18.85;;;;;;;-1.03;91.50;100520.97;1707234;84;21081;-68
2022/03/26 00:45:47;;;;;;;37.58;19.80;;;;;;;-1.04;91.65;100517.92;1707000;84;21577;-70
2022/03/26 00:48:14;;;;;;;37.40;19.60;;;;;;;-1.08;91.64;100515.30;1707102;84;21080;-69
2022/03/26 00:50:41;;;;;;;42.40;23.20;;;;;;;-1.10;91.87;100514.39;1732819;82;21207;-69
2022/03/26 00:53:07;;;;;;;39.75;19.95;;;;;;;-1.10;91.79;100516.98;1745128;82;21005;-70
2022/03/26 00:55:35;;;;;;;36.55;20.57;;;;;;;-1.11;91.71;100515.66;1750828;82;21092;-68
2022/03/26 00:58:02;;;;;;;47.48;23.92;;;;;;;-1.13;91.96;100511.77;1750771;82;21053;-70
2022/03/26 01:00:30;;;;;;;43.35;19.20;;;;;;;-1.13;91.91;100505.70;1750651;82;21065;-69
2022/03/26 01:02:58;;;;;;;44.25;23.80;;;;;;;-1.15;91.87;100508.29;1750829;82;21315;-70
2022/03/26 01:07:55;;;;;;;44.17;23.40;;;;;;;-1.16;92.28;100497.48;1796209;79;22655;-70
2022/03/26 01:10:24;;;;;;;49.70;23.65;;;;;;;-1.25;92.00;100496.04;1756239;81;21035;-69
2022/03/26 01:12:51;;;;;;;45.88;25.32;;;;;;;-1.26;92.02;100489.15;1756140;81;21224;-69
2022/03/26 01:15:18;;;;;;;46.53;24.25;;;;;;;-1.27;92.02;100485.70;1756131;81;20934;-69
2022/03/26 01:17:46;;;;;;;41.35;22.42;;;;;;;-1.27;92.09;100488.68;1756394;81;20993;-69
2022/03/26 01:20:13;;;;;;;43.55;23.55;;;;;;;-1.27;92.28;100487.39;1756279;81;21093;-69
2022/03/26 01:22:41;;;;;;;50.08;24.85;;;;;;;-1.28;92.64;100486.95;1736119;81;21517;-68
2022/03/26 01:25:08;;;;;;;43.08;22.87;;;;;;;-1.29;92.74;100481.32;1726363;83;21341;-69
2022/03/26 01:27:35;;;;;;;43.38;22.05;;;;;;;-1.30;92.69;100482.18;1726438;83;21120;-69
2022/03/26 01:30:01;;;;;;;39.95;21.23;;;;;;;-1.30;93.13;100482.18;1726284;83;21506;-69
2022/03/26 01:32:28;;;;;;;39.53;20.75;;;;;;;-1.30;93.03;100482.18;1726528;83;21532;-70
2022/03/26 01:34:56;;;;;;;37.50;20.37;;;;;;;-1.32;92.89;100478.70;1726315;83;21111;-69
2022/03/26 01:37:23;;;;;;;44.53;22.70;;;;;;;-1.33;92.82;100478.27;1721147;83;21214;-68
2022/03/26 01:39:54;;;;;;;36.88;20.40;;;;;;;-1.32;93.67;100481.28;1695439;84;21014;-68
2022/03/26 01:42:20;;;;;;;36.20;20.20;;;;;;;-1.30;93.82;100475.72;1695769;84;21523;-69
2022/03/26 01:44:48;;;;;;;43.35;21.48;;;;;;;-1.30;93.85;100470.13;1695882;84;21093;-68
2022/03/26 01:47:15;;;;;;;50.55;24.85;;;;;;;-1.31;93.59;100464.95;1695787;84;21064;-68
2022/03/26 01:49:41;;;;;;;49.53;25.72;;;;;;;-1.31;93.40;100463.23;1695594;84;21210;-69
2022/03/26 01:52:10;;;;;;;49.70;25.08;;;;;;;-1.32;93.45;100454.16;1695348;84;21029;-69
2022/03/26 01:54:41;;;;;;;53.70;26.65;;;;;;;-1.31;94.58;100450.31;1695707;84;21069;-69
2022/03/26 01:57:10;;;;;;;55.78;26.93;;;;;;;-1.24;96.01;100448.70;1695775;84;21061;-70
2022/03/26 01:59:41;;;;;;;60.30;27.95;;;;;;;-1.11;97.26;100445.44;1695810;84;21132;-69
2022/03/26 02:02:09;;;;;;;54.38;28.42;;;;;;;-0.93;97.56;100447.44;1695977;84;21535;-69
2022/03/26 02:04:36;;;;;;;55.15;27.13;;;;;;;-0.77;97.27;100446.38;1695739;84;21505;-69
2022/03/26 02:07:04;;;;;;;49.18;25.15;;;;;;;-0.62;96.62;100441.82;1689280;84;21049;-69
2022/03/26 02:09:35;;;;;;;53.70;26.12;;;;;;;-0.48;95.79;100437.72;1683682;84;21015;-70
2022/03/26 02:12:06;;;;;;;45.85;23.57;;;;;;;-0.37;94.92;100429.64;1683418;84;21105;-70
2022/03/26 02:14:34;;;;;;;50.85;24.18;;;;;;;-0.27;94.28;100419.86;1678329;85;21582;-68
2022/03/26 02:17:01;;;;;;;46.33;24.63;;;;;;;-0.17;93.45;100423.41;1683594;85;20987;-69
2022/03/26 02:19:29;;;;;;;44.25;23.95;;;;;;;-0.10;92.75;100425.64;1683006;84;21027;-69
2022/03/26 02:21:55;;;;;;;43.05;22.73;;;;;;;-0.03;92.10;100422.27;1682850;84;21593;-68
2022/03/26 02:24:22;;;;;;;49.55;24.67;;;;;;;0.00;91.56;100421.03;1683046;85;21570;-68
2022/03/26 02:26:49;;;;;;;47.20;24.32;;;;;;;0.05;90.87;100420.64;1682712;85;21185;-69
2022/03/26 02:29:16;;;;;;;47.58;25.85;;;;;;;0.06;90.33;100423.66;1682870;85;21113;-69
2022/03/26 02:31:42;;;;;;;50.35;24.70;;;;;;;0.07;90.11;100424.52;1682986;84;21539;-69
2022/03/26 02:34:10;;;;;;;50.75;24.45;;;;;;;0.05;89.64;100424.52;1683019;85;21166;-69
2022/03/26 02:36:38;;;;;;;42.20;24.30;;;;;;;0.00;89.18;100417.14;1682710;85;21117;-69
2022/03/26 02:39:05;;;;;;;45.98;24.63;;;;;;;-0.06;88.67;100419.66;1682975;83;21522;-69
2022/03/26 02:41:34;;;;;;;45.27;24.03;;;;;;;-0.13;88.26;100416.56;1682857;85;21045;-70
2022/03/26 02:44:02;;;;;;;44.40;23.55;;;;;;;-0.19;88.42;100406.13;1682707;85;21597;-69
2022/03/26 02:46:29;;;;;;;46.80;25.62;;;;;;;-0.25;88.99;100406.51;1683129;85;21101;-69
2022/03/26 02:48:57;;;;;;;46.18;23.80;;;;;;;-0.24;89.38;100404.78;1682924;83;21074;-68
2022/03/26 02:51:23;;;;;;;49.77;25.25;;;;;;;-0.23;89.77;100402.63;1711383;82;21237;-70
2022/03/26 02:53:50;;;;;;;51.13;24.00;;;;;;;-0.18;89.72;100397.50;1711358;83;21552;-68
2022/03/26 02:56:19;;;;;;;46.45;23.40;;;;;;;-0.17;89.04;100399.25;1711415;82;21064;-68
2022/03/26 02:58:47;;;;;;;45.23;24.55;;;;;;;-0.19;89.11;100395.77;1711242;82;21039;-69
2022/03/26 03:01:14;;;;;;;40.52;22.42;;;;;;;-0.18;88.90;100398.79;1711650;83;21075;-68
2022/03/26 03:03:41;;;;;;;44.48;24.00;;;;;;;-0.24;88.13;100386.23;1711399;83;21266;-68
2022/03/26 03:06:08;;;;;;;38.30;21.60;;;;;;;-0.29;88.03;100378.84;1711428;83;21096;-70
2022/03/26 03:08:37;;;;;;;46.88;22.85;;;;;;;-0.31;89.01;100376.67;1711338;83;21056;-69
2022/03/26 03:11:04;;;;;;;49.13;23.75;;;;;;;-0.28;89.65;100371.52;1711342;83;21056;-68
2022/03/26 03:13:31;;;;;;;49.45;25.15;;;;;;;-0.22;90.08;100376.77;1711438;82;21477;-70
2022/03/26 03:15:58;;;;;;;46.28;25.08;;;;;;;-0.15;90.05;100367.78;1711510;82;21313;-69
2022/03/26 03:18:25;;;;;;;51.33;24.45;;;;;;;-0.05;90.06;100359.23;1711387;83;21138;-69
2022/03/26 03:20:51;;;;;;;50.35;23.80;;;;;;;0.05;89.39;100363.67;1711438;82;21035;-69
2022/03/26 03:23:18;;;;;;;46.40;23.83;;;;;;;0.11;89.01;100358.52;1711481;83;21051;-68
2022/03/26 03:25:45;;;;;;;43.92;23.12;;;;;;;0.18;88.44;100353.88;1704056;83;21539;-68
2022/03/26 03:28:12;;;;;;;46.48;23.83;;;;;;;0.24;87.89;100349.59;1683198;84;21521;-70
2022/03/26 03:30:41;;;;;;;44.30;21.80;;;;;;;0.29;87.27;100363.44;1682909;84;21051;-69
2022/03/26 03:33:09;;;;;;;49.95;23.47;;;;;;;0.28;86.89;100353.52;1682929;85;21050;-69
2022/03/26 03:35:36;;;;;;;41.53;21.60;;;;;;;0.30;86.54;100347.03;1683016;85;21039;-69
2022/03/26 03:38:02;;;;;;;46.30;22.40;;;;;;;0.30;86.18;100342.74;1682885;83;21101;-68
2022/03/26 03:40:29;;;;;;;46.23;22.85;;;;;;;0.39;85.64;100345.41;1682949;85;21232;-69
2022/03/26 03:42:55;;;;;;;38.67;20.65;;;;;;;0.48;85.38;100339.40;1682631;85;21499;-69
2022/03/26 03:45:22;;;;;;;41.25;21.42;;;;;;;0.56;84.68;100337.75;1682703;85;21101;-68
2022/03/26 03:47:50;;;;;;;41.23;21.23;;;;;;;0.66;84.25;100333.92;1682591;85;21089;-68
2022/03/26 03:50:17;;;;;;;39.18;20.72;;;;;;;0.72;83.83;100335.27;1698814;83;21087;-71
2022/03/26 03:52:44;;;;;;;39.50;20.70;;;;;;;0.82;83.33;100330.12;1711299;83;21185;-69
2022/03/26 03:55:11;;;;;;;42.83;21.23;;;;;;;1.00;82.40;100326.77;1711467;83;21052;-69
2022/03/26 03:57:42;;;;;;;39.10;19.85;;;;;;;1.00;82.40;100326.77;1711249;82;21056;-68
2022/03/26 04:00:11;;;;;;;48.02;22.90;;;;;;;1.07;82.14;100317.73;1711918;82;21034;-69
2022/03/26 04:02:41;;;;;;;42.83;21.45;;;;;;;1.16;81.60;100320.37;1711466;82;22139;-69
2022/03/26 04:05:09;;;;;;;40.33;21.42;;;;;;;1.24;80.78;100317.36;1711623;83;21297;-68
2022/03/26 04:07:37;;;;;;;38.78;20.23;;;;;;;1.33;80.20;100321.72;1711237;82;21547;-69
2022/03/26 04:10:07;;;;;;;41.55;21.50;;;;;;;1.39;79.74;100318.72;1711287;82;21119;-69
2022/03/26 04:12:38;;;;;;;39.55;20.45;;;;;;;1.46;79.36;100310.52;1711611;82;21084;-68
2022/03/26 04:15:07;;;;;;;38.00;19.70;;;;;;;1.48;78.71;100308.80;1711317;82;22083;-70
2022/03/26 04:17:35;;;;;;;36.83;20.37;;;;;;;1.54;78.31;100311.43;1711605;83;21280;-69
2022/03/26 04:20:06;;;;;;;33.05;19.07;;;;;;;1.59;78.28;100298.46;1711397;83;21107;-69
2022/03/26 04:22:33;;;;;;;39.45;20.15;;;;;;;1.71;77.63;100306.27;1711752;83;20997;-69
2022/03/26 04:24:59;;;;;;;39.75;20.57;;;;;;;1.81;77.28;100295.02;1711342;82;21095;-69
2022/03/26 04:27:27;;;;;;;37.25;19.07;;;;;;;1.93;76.94;100293.30;1711469;83;21533;-69
2022/03/26 04:29:54;;;;;;;38.67;19.10;;;;;;;2.02;76.80;100277.72;1711419;83;21573;-69
2022/03/26 04:32:21;;;;;;;36.08;19.73;;;;;;;2.13;76.44;100275.98;1711362;82;21505;-71
2022/03/26 04:34:47;;;;;;;33.88;18.67;;;;;;;2.30;76.33;100269.06;1711357;83;21021;-70
2022/03/26 04:37:14;;;;;;;38.85;19.20;;;;;;;2.78;75.27;100273.28;1711530;82;21036;-70
2022/03/26 04:39:41;;;;;;;36.17;17.65;;;;;;;3.34;72.96;100266.55;1711493;82;21064;-68
2022/03/26 04:42:09;;;;;;;34.03;18.50;;;;;;;3.89;70.50;100262.73;1711496;82;21144;-69
2022/03/26 04:44:36;;;;;;;31.77;18.25;;;;;;;4.43;68.51;100258.79;1711424;83;21552;-67
2022/03/26 04:47:04;;;;;;;31.60;17.80;;;;;;;4.98;65.89;100263.41;1711512;83;21028;-68
2022/03/26 04:49:31;;;;;;;33.78;17.67;;;;;;;5.51;63.54;100260.53;1711687;82;21023;-69
2022/03/26 04:51:59;;;;;;;32.45;17.85;;;;;;;6.07;61.76;100261.88;1711442;82;21002;-69
2022/03/26 04:54:27;;;;;;;28.30;16.60;;;;;;;6.66;59.56;100252.56;1711603;83;21159;-70
2022/03/26 04:56:54;;;;;;;36.20;16.37;;;;;;;7.14;55.81;100257.27;1711343;83;21086;-69
2022/03/26 04:59:21;;;;;;;30.60;15.90;;;;;;;7.60;54.42;100242.30;1711638;83;21091;-70
2022/03/26 05:01:49;;;;;;;24.60;15.48;;;;;;;8.08;53.71;100251.20;1690274;83;21065;-70
2022/03/26 05:04:15;;;;;;;28.55;17.42;;;;;;;8.43;52.43;100251.24;1682991;85;21047;-70
2022/03/26 05:06:42;;;;;;;29.92;15.93;;;;;;;8.63;51.08;100246.75;1703787;83;21366;-69
2022/03/26 05:09:10;;;;;;;31.68;16.75;;;;;;;8.85;49.76;100253.14;1723634;82;21101;-71
2022/03/26 05:11:37;;;;;;;28.90;16.10;;;;;;;8.94;48.72;100256.82;1724193;83;21076;-70
2022/03/26 05:14:05;;;;;;;26.75;16.15;;;;;;;9.08;48.64;100252.48;1724159;82;21011;-69
2022/03/26 05:16:32;;;;;;;27.52;15.65;;;;;;;9.23;47.54;100242.00;1724235;83;21050;-69
2022/03/26 05:19:00;;;;;;;26.10;15.15;;;;;;;9.35;46.70;100242.08;1724116;82;21558;-70
2022/03/26 05:21:27;;;;;;;26.62;15.40;;;;;;;9.54;46.70;100231.39;1724190;82;21634;-70
2022/03/26 05:23:55;;;;;;;28.50;16.15;;;;;;;9.79;45.89;100227.54;1724175;82;21054;-71
2022/03/26 05:26:22;;;;;;;27.17;15.43;;;;;;;9.96;45.31;100221.75;1724195;83;21029;-69
2022/03/26 05:28:51;;;;;;;25.82;16.00;;;;;;;10.03;44.73;100220.63;1724309;83;21081;-72
2022/03/26 05:31:18;;;;;;;28.95;15.18;;;;;;;10.04;44.58;100214.91;1724361;83;21245;-68
2022/03/26 05:33:45;;;;;;;30.88;14.28;;;;;;;10.27;43.52;100208.40;1723958;83;21074;-69
2022/03/26 05:36:11;;;;;;;28.47;16.80;;;;;;;10.60;42.33;100215.20;1724270;82;21097;-70
2022/03/26 05:38:38;;;;;;;28.10;15.80;;;;;;;10.75;42.23;100217.75;1724084;83;21069;-70
2022/03/26 05:41:05;;;;;;;26.70;15.90;;;;;;;10.99;41.77;100211.56;1724056;82;21045;-70
2022/03/26 05:43:31;;;;;;;32.65;16.30;;;;;;;11.21;40.59;100216.05;1724073;82;21248;-70
2022/03/26 05:46:00;;;;;;;26.50;15.53;;;;;;;11.45;40.08;100207.16;1724258;83;21089;-69
2022/03/26 05:48:26;;;;;;;27.48;14.90;;;;;;;11.64;39.30;100207.75;1724274;83;21057;-70
2022/03/26 05:50:54;;;;;;;37.67;15.93;;;;;;;11.78;38.80;100202.80;1724313;82;21102;-69
2022/03/26 05:53:21;;;;;;;26.90;15.90;;;;;;;11.71;38.80;100205.25;1724457;82;21259;-69
2022/03/26 05:55:49;;;;;;;27.87;15.18;;;;;;;11.78;38.68;100198.84;1724389;83;21191;-70
2022/03/26 05:58:17;;;;;;;27.48;14.85;;;;;;;11.94;38.25;100189.39;1724495;83;21091;-70
2022/03/26 06:00:48;;;;;;;24.77;14.80;;;;;;;12.10;38.50;100186.97;1724114;83;21082;-69
2022/03/26 06:03:13;;;;;;;23.80;14.13;;;;;;;12.25;37.86;100182.80;1724131;82;21108;-69
2022/03/26 06:05:40;;;;;;;26.57;15.90;;;;;;;12.20;37.16;100180.83;1724300;83;21069;-68
2022/03/26 06:08:08;;;;;;;21.52;13.60;;;;;;;11.99;37.67;100172.52;1719056;82;21164;-70
2022/03/26 06:10:35;;;;;;;26.45;15.13;;;;;;;12.02;37.83;100172.37;1711441;83;21015;-71
2022/03/26 06:13:02;;;;;;;25.08;14.25;;;;;;;11.98;37.82;100170.78;1711346;83;21148;-69
2022/03/26 06:15:28;;;;;;;27.15;14.45;;;;;;;12.08;37.71;100169.48;1711572;82;21071;-69
2022/03/26 06:17:55;;;;;;;24.55;14.30;;;;;;;12.18;37.62;100165.52;1711323;83;21121;-71
2022/03/26 06:20:24;;;;;;;24.72;13.95;;;;;;;12.43;36.75;100161.81;1711425;82;21093;-69
2022/03/26 06:22:50;;;;;;;26.37;14.58;;;;;;;12.47;36.38;100156.33;1711269;83;21077;-69
2022/03/26 06:25:17;;;;;;;23.83;13.80;;;;;;;12.54;36.44;100156.91;1711367;82;21105;-68
2022/03/26 06:27:48;;;;;;;25.68;14.38;;;;;;;12.73;36.01;100145.89;1711430;83;21066;-69
2022/03/26 06:30:16;;;;;;;26.87;14.10;;;;;;;12.47;36.20;100148.84;1711591;83;21007;-69
2022/03/26 06:32:43;;;;;;;26.45;13.58;;;;;;;12.44;36.47;100137.10;1711314;83;21330;-69
2022/03/26 06:35:11;;;;;;;27.55;14.85;;;;;;;12.51;36.14;100138.54;1711322;82;21574;-70
2022/03/26 06:37:37;;;;;;;28.80;14.60;;;;;;;12.51;36.46;100140.71;1711368;83;21057;-71
2022/03/26 06:40:07;;;;;;;28.12;15.05;;;;;;;12.53;36.18;100147.25;1711316;82;21082;-69
2022/03/26 06:42:34;;;;;;;28.17;14.60;;;;;;;12.57;36.24;100135.16;1711421;83;21113;-71
2022/03/26 06:45:01;;;;;;;28.77;15.13;;;;;;;12.76;35.92;100133.85;1711463;83;21100;-69
2022/03/26 06:47:30;;;;;;;26.25;14.45;;;;;;;12.98;35.88;100124.95;1711245;83;21117;-70
2022/03/26 06:49:56;;;;;;;25.70;14.80;;;;;;;13.23;35.68;100125.48;1711357;82;21647;-70
2022/03/26 06:52:24;;;;;;;24.75;14.45;;;;;;;13.52;35.15;100125.88;1711389;82;21547;-70
2022/03/26 06:54:51;;;;;;;34.73;15.80;;;;;;;13.54;35.43;100116.08;1711468;83;21068;-71
2022/03/26 06:57:18;;;;;;;30.88;15.08;;;;;;;13.36;35.30;100110.38;1711285;83;21354;-68
2022/03/26 06:59:46;;;;;;;34.88;15.30;;;;;;;13.06;36.18;100114.85;1711335;83;21528;-70
2022/03/26 07:02:14;;;;;;;31.35;15.45;;;;;;;13.29;35.81;100104.99;1711486;83;21055;-69
2022/03/26 07:04:40;;;;;;;26.25;15.45;;;;;;;13.62;35.69;100100.70;1711146;83;22195;-70
2022/03/26 07:07:07;;;;;;;31.02;16.23;;;;;;;14.02;34.87;100086.73;1711301;83;21044;-69
2022/03/26 07:09:37;;;;;;;34.40;18.07;;;;;;;14.36;34.82;100087.63;1717972;82;21140;-69
2022/03/26 07:12:06;;;;;;;31.60;16.17;;;;;;;14.73;34.30;100079.03;1700613;83;21095;-70
2022/03/26 07:14:32;;;;;;;27.17;15.53;;;;;;;15.03;33.43;100079.59;1719447;83;21562;-70
2022/03/26 07:16:59;;;;;;;30.82;16.87;;;;;;;15.21;33.08;100085.19;1719098;83;21507;-70
2022/03/26 07:19:26;;;;;;;33.40;17.15;;;;;;;15.43;32.90;100078.63;1719163;83;21087;-69
2022/03/26 07:21:53;;;;;;;35.50;18.12;;;;;;;15.28;32.81;100077.25;1719348;83;21118;-69
2022/03/26 07:24:21;;;;;;;34.38;17.15;;;;;;;15.39;32.78;100082.40;1718878;83;21079;-69
2022/03/26 07:26:48;;;;;;;32.75;17.73;;;;;;;15.66;32.15;100071.50;1719204;83;21212;-69
2022/03/26 07:29:14;;;;;;;38.08;17.75;;;;;;;15.75;32.13;100075.93;1719124;83;21052;-70
2022/03/26 07:31:42;;;;;;;32.53;17.40;;;;;;;15.79;32.09;100068.17;1719110;83;21067;-69
2022/03/26 07:34:11;;;;;;;36.08;18.15;;;;;;;16.02;32.32;100063.66;1719157;83;21256;-69
2022/03/26 07:36:37;;;;;;;33.33;17.82;;;;;;;16.27;31.44;100070.13;1700952;83;21055;-70
2022/03/26 07:39:04;;;;;;;32.67;17.57;;;;;;;16.24;31.31;100060.55;1719154;83;21052;-69
2022/03/26 07:41:31;;;;;;;37.23;17.73;;;;;;;16.45;31.26;100065.00;1719217;83;21059;-69
2022/03/26 07:43:58;;;;;;;38.15;17.92;;;;;;;16.69;30.57;100055.09;1719170;83;21551;-69
2022/03/26 07:46:25;;;;;;;36.55;19.37;;;;;;;16.82;30.42;100049.41;1719106;83;21204;-71
2022/03/26 07:48:54;;;;;;;34.00;19.00;;;;;;;17.07;30.13;100035.38;1719011;83;21114;-70
2022/03/26 07:51:21;;;;;;;37.58;19.70;;;;;;;17.40;29.81;100036.27;1719183;83;21594;-69
2022/03/26 07:53:47;;;;;;;42.58;19.67;;;;;;;17.84;29.16;100022.25;1719035;83;22080;-69
2022/03/26 07:56:14;;;;;;;36.77;20.20;;;;;;;18.35;28.00;100017.38;1719204;83;21644;-69
2022/03/26 07:58:41;;;;;;;41.30;20.17;;;;;;;18.37;27.73;100013.63;1719318;83;21150;-70
2022/03/26 08:01:08;;;;;;;38.55;21.37;;;;;;;18.57;27.71;99998.88;1718979;83;21046;-69
2022/03/26 08:03:35;;;;;;;39.33;19.98;;;;;;;18.98;27.36;100006.16;1719345;83;21033;-70
2022/03/26 08:06:03;;;;;;;40.73;21.68;;;;;;;19.29;26.76;99998.06;1718990;83;21041;-69
2022/03/26 08:08:32;;;;;;;44.33;21.85;;;;;;;19.54;26.15;99998.39;1720636;83;21041;-71
2022/03/26 08:11:02;;;;;;;40.78;22.02;;;;;;;19.27;26.45;99989.31;1708538;83;21109;-69
2022/03/26 08:13:29;;;;;;;40.60;21.35;;;;;;;19.22;26.55;99996.83;1707998;83;21023;-69
2022/03/26 08:15:57;;;;;;;46.63;22.82;;;;;;;19.11;26.29;99978.94;1724125;83;21120;-69
2022/03/26 08:18:24;;;;;;;42.03;21.48;;;;;;;18.92;26.82;99979.47;1724122;83;21124;-69
2022/03/26 08:20:51;;;;;;;40.45;20.45;;;;;;;18.69;27.06;99977.62;1707858;83;21628;-70
2022/03/26 08:23:18;;;;;;;41.23;21.85;;;;;;;18.47;27.26;99975.16;1724303;82;21863;-70
2022/03/26 08:28:30;;;;;;;42.70;23.00;;;;;;;18.34;27.45;99965.88;1724258;83;21530;-69
2022/03/26 08:30:58;;;;;;;44.95;23.55;;;;;;;18.39;27.88;99960.22;1724354;82;21034;-69
2022/03/26 08:33:25;;;;;;;46.05;22.37;;;;;;;18.84;27.08;99949.82;1724296;83;21006;-70
2022/03/26 08:35:53;;;;;;;43.15;20.52;;;;;;;18.89;26.84;99958.36;1724174;82;21249;-69
2022/03/26 08:38:21;;;;;;;37.63;18.65;;;;;;;18.25;27.54;99954.55;1724380;83;21054;-70
2022/03/26 08:40:48;;;;;;;44.75;23.02;;;;;;;17.54;28.61;99951.95;1707810;83;21017;-70
2022/03/26 08:43:17;;;;;;;48.10;23.92;;;;;;;17.30;29.00;99946.03;1724226;83;21249;-69
2022/03/26 08:45:45;;;;;;;47.33;23.12;;;;;;;17.10;29.57;99943.86;1724508;83;21113;-70
2022/03/26 08:48:15;;;;;;;46.45;23.38;;;;;;;17.17;29.40;99935.34;1724224;83;21235;-69
2022/03/26 08:50:43;;;;;;;47.10;22.93;;;;;;;17.28;28.74;99922.66;1724351;83;21033;-70
2022/03/26 08:53:11;;;;;;;51.60;22.37;;;;;;;17.36;28.80;99916.80;1724356;83;21055;-70
2022/03/26 08:55:38;;;;;;;49.23;23.67;;;;;;;17.22;28.95;99919.07;1724247;83;21050;-70
2022/03/26 08:58:07;;;;;;;48.45;21.25;;;;;;;17.28;29.00;99898.70;1724418;83;21043;-70
2022/03/26 09:00:35;;;;;;;38.63;19.30;;;;;;;17.30;29.02;99902.11;1724410;82;21136;-69
2022/03/26 09:03:02;;;;;;;37.65;19.62;;;;;;;17.20;29.51;99890.38;1724144;83;21059;-70
2022/03/26 09:05:29;;;;;;;37.53;17.73;;;;;;;17.20;29.42;99885.05;1724376;82;21017;-70
2022/03/26 09:07:56;;;;;;;33.95;17.00;;;;;;;17.02;30.18;99886.30;1724214;83;21055;-70
2022/03/26 09:10:24;;;;;;;37.30;17.20;;;;;;;16.40;31.42;99884.17;1719562;83;21016;-70
2022/03/26 09:12:51;;;;;;;39.48;17.48;;;;;;;16.12;32.24;99881.48;1719418;83;21101;-70
2022/03/26 09:15:18;;;;;;;45.80;18.05;;;;;;;16.09;32.58;99871.06;1719051;83;21032;-70
2022/03/26 09:17:46;;;;;;;33.98;17.02;;;;;;;16.25;32.70;99872.75;1718985;83;21103;-70
2022/03/26 09:20:14;;;;;;;40.40;18.48;;;;;;;16.24;33.01;99859.95;1700841;83;21059;-71
2022/03/26 09:22:41;;;;;;;34.63;17.37;;;;;;;16.32;33.29;99859.44;1718998;83;21631;-70
2022/03/26 09:25:10;;;;;;;40.50;18.45;;;;;;;16.46;33.49;99840.77;1719174;83;21258;-71
2022/03/26 09:27:37;;;;;;;38.20;17.57;;;;;;;16.50;33.46;99846.27;1719119;83;21043;-69
2022/03/26 09:30:06;;;;;;;40.33;17.80;;;;;;;16.52;33.31;99833.73;1699694;83;21032;-70
2022/03/26 09:32:35;;;;;;;40.38;18.07;;;;;;;16.57;33.31;99833.42;1662697;84;21055;-70
2022/03/26 09:35:06;;;;;;;31.00;16.70;;;;;;;16.80;33.00;99829.25;1645321;86;21130;-72
2022/03/26 09:37:36;;;;;;;34.58;17.48;;;;;;;17.20;32.56;99826.52;1629979;88;21190;-69
2022/03/26 09:40:05;;;;;;;35.73;18.07;;;;;;;17.68;32.00;99812.03;1662569;85;21070;-69
2022/03/26 09:42:33;;;;;;;39.92;18.15;;;;;;;17.97;31.54;99810.47;1662915;86;21981;-70
2022/03/26 09:45:00;;;;;;;34.75;16.73;;;;;;;18.24;31.13;99804.44;1662580;86;21028;-71
2022/03/26 09:47:27;;;;;;;34.20;17.90;;;;;;;18.21;31.29;99801.98;1662548;86;21378;-70
2022/03/26 09:49:56;;;;;;;41.95;18.50;;;;;;;18.07;31.45;99786.16;1668473;83;21167;-70
2022/03/26 09:52:22;;;;;;;37.20;17.37;;;;;;;18.18;31.26;99785.38;1700776;83;21107;-70
2022/03/26 09:54:49;;;;;;;36.13;16.85;;;;;;;18.35;31.16;99772.13;1719143;83;21050;-70
2022/03/26 09:57:17;;;;;;;35.78;17.42;;;;;;;18.65;30.87;99771.13;1673008;83;21083;-69
2022/03/26 09:59:44;;;;;;;35.40;16.77;;;;;;;18.92;30.62;99744.66;1662522;86;21098;-70
2022/03/26 10:02:13;;;;;;;37.95;16.73;;;;;;;19.05;30.50;99748.08;1662379;86;21294;-69
2022/03/26 10:04:41;;;;;;;32.58;14.75;;;;;;;19.10;30.33;99738.87;1662652;86;21091;-70
2022/03/26 10:07:09;;;;;;;30.35;14.93;;;;;;;19.21;30.18;99732.17;1662449;86;22319;-71
2022/03/26 10:09:40;;;;;;;26.55;13.60;;;;;;;19.00;30.60;99720.91;1671749;84;21062;-69
2022/03/26 10:12:14;;;;;;;31.57;13.58;;;;;;;18.86;30.90;99704.66;1682877;85;21046;-70
2022/03/26 10:14:54;;;;;;;31.55;13.78;;;;;;;18.85;31.12;99702.94;1683097;85;21124;-69
2022/03/26 10:17:36;;;;;;;28.77;13.98;;;;;;;18.47;31.27;99693.86;1672854;85;21571;-70
2022/03/26 10:20:12;;;;;;;28.30;13.90;;;;;;;18.20;31.61;99699.02;1674211;85;21519;-69
2022/03/26 10:22:48;;;;;;;24.92;12.68;;;;;;;18.07;31.86;99686.24;1682883;85;21081;-70
2022/03/26 10:25:20;;;;;;;25.52;12.68;;;;;;;18.03;32.22;99682.10;1683265;85;21085;-70
2022/03/26 10:27:53;;;;;;;25.80;13.72;;;;;;;18.00;32.60;99682.34;1682916;84;21162;-69
2022/03/26 10:33:21;;;;;;;28.57;12.60;;;;;;;18.47;31.27;99669.87;1683229;85;21074;-69
2022/03/26 10:35:58;;;;;;;34.60;12.40;;;;;;;18.74;30.15;99658.03;1673221;85;21081;-70
2022/03/26 10:38:39;;;;;;;21.25;10.68;;;;;;;18.59;30.09;99658.27;1682676;83;21046;-71
2022/03/26 10:41:07;;;;;;;;;;;;;;;18.48;29.60;99646.75;1685460;84;21294;-69
2022/03/26 10:43:41;;;;;;;27.10;10.35;;;;;;;18.60;29.57;99642.63;1682779;84;20461;-73
2022/03/26 10:46:09;;;;;;;28.10;11.95;;;;;;;18.57;29.63;99632.20;1683104;85;21070;-69
2022/03/26 10:48:37;;;;;;;26.87;11.93;;;;;;;18.60;29.85;99622.63;1673010;85;21514;-70
2022/03/26 10:51:10;;;;;;;25.52;10.60;;;;;;;18.60;29.97;99615.11;1708324;83;21571;-71
2022/03/26 10:53:43;;;;;;;80.25;13.80;;;;;;;18.33;30.16;99600.29;1711389;83;21138;-70
2022/03/26 10:56:15;;;;;;;23.38;9.65;;;;;;;18.18;30.17;99585.02;1711747;82;21048;-70
2022/03/26 10:58:46;;;;;;;29.67;10.47;;;;;;;18.10;30.05;99577.24;1711630;82;21083;-70
2022/03/26 11:01:14;;;;;;;27.25;10.32;;;;;;;17.93;30.29;99562.08;1711632;83;21556;-69
2022/03/26 11:03:43;;;;;;;18.80;9.98;;;;;;;18.04;30.36;99546.61;1701065;83;22049;-69
2022/03/26 11:06:15;;;;;;;;;;;;;;;18.26;30.41;99544.92;1681772;83;21767;-70
2022/03/26 11:08:47;;;;;;;29.00;9.58;;;;;;;18.16;30.45;99536.31;1711207;83;20199;-71
2022/03/26 11:11:14;;;;;;;22.73;9.75;;;;;;;18.11;30.30;99541.16;1711620;83;21509;-70
2022/03/26 11:13:49;;;;;;;51.48;10.45;;;;;;;18.06;30.25;99528.69;1701517;83;21613;-71
2022/03/26 11:16:34;;;;;;;24.10;9.80;;;;;;;17.90;30.54;99518.83;1711597;83;21072;-70
2022/03/26 11:19:26;;;;;;;20.92;8.75;;;;;;;17.53;31.02;99520.27;1711273;82;20996;-69
2022/03/26 11:22:33;;;;;;;23.07;9.43;;;;;;;17.43;31.37;99510.81;1711033;83;21037;-70
2022/03/26 11:25:46;;;;;;;21.73;8.68;;;;;;;17.25;31.90;99518.84;1711530;83;21052;-70
2022/03/26 11:28:38;;;;;;;20.02;8.58;;;;;;;17.22;32.04;99501.30;1711202;83;21020;-70